createdAt,value
2023-01-17T00:02:31.099Z,0.60
2023-01-17T00:06:52.061Z,0.60
2023-01-17T00:10:55.343Z,0.80
2023-01-17T00:15:00.215Z,0.80
2023-01-17T00:19:23.723Z,0.70
2023-01-17T00:23:56.901Z,0.70
2023-01-17T00:27:59.393Z,0.80
2023-01-17T00:32:01.478Z,0.80
2023-01-17T00:36:06.201Z,0.80
2023-01-17T00:40:10.324Z,0.90
2023-01-17T00:44:31.160Z,0.80
2023-01-17T00:48:53.160Z,0.70
2023-01-17T00:53:15.434Z,0.80
2023-01-17T00:57:36.286Z,0.60
2023-01-17T01:01:57.025Z,0.80
2023-01-17T01:06:19.005Z,0.70
2023-01-17T01:10:41.043Z,0.80
2023-01-17T01:15:01.775Z,0.80
2023-01-17T01:19:22.826Z,0.70
2023-01-17T01:23:43.633Z,0.90
2023-01-17T01:28:05.853Z,1.00
2023-01-17T01:36:24.753Z,1.00
2023-01-17T01:40:28.017Z,0.90
2023-01-17T01:44:47.475Z,1.00
2023-01-17T01:48:55.475Z,0.80
2023-01-17T01:53:03.783Z,0.80
2023-01-17T01:57:10.660Z,0.80
2023-01-17T02:01:17.736Z,0.70
2023-01-17T02:05:23.862Z,0.80
2023-01-17T02:09:28.370Z,0.90
2023-01-17T02:13:32.607Z,0.80
2023-01-17T02:17:51.100Z,0.80
2023-01-17T02:22:04.161Z,0.60
2023-01-17T02:26:40.296Z,0.80
2023-01-17T02:30:49.403Z,0.70
2023-01-17T02:35:02.279Z,0.90
2023-01-17T02:39:10.852Z,0.70
2023-01-17T02:43:17.095Z,0.70
2023-01-17T02:47:24.675Z,0.60
2023-01-17T02:51:57.501Z,0.80
2023-01-17T02:56:08.415Z,0.70
2023-01-17T03:00:22.770Z,0.80
2023-01-17T03:04:32.871Z,0.70
2023-01-17T03:08:36.472Z,0.60
2023-01-17T03:12:41.039Z,0.70
2023-01-17T03:16:44.663Z,0.60
2023-01-17T03:20:50.521Z,0.50
2023-01-17T03:24:53.794Z,0.80
2023-01-17T03:28:57.339Z,0.80
2023-01-17T03:33:00.688Z,0.60
2023-01-17T03:37:05.453Z,0.60
2023-01-17T03:41:09.000Z,0.60
2023-01-17T03:45:12.893Z,0.60
2023-01-17T03:49:16.853Z,0.70
2023-01-17T03:53:21.575Z,0.60
2023-01-17T03:57:24.959Z,0.60
2023-01-17T04:01:28.447Z,0.50
2023-01-17T04:05:31.752Z,0.70
2023-01-17T04:09:36.457Z,0.80
2023-01-17T04:13:40.848Z,0.80
2023-01-17T04:17:44.228Z,0.60
2023-01-17T04:21:47.696Z,0.70
2023-01-17T04:25:52.410Z,0.60
2023-01-17T04:29:55.835Z,0.50
2023-01-17T04:33:59.199Z,0.40
2023-01-17T04:38:02.494Z,0.60
2023-01-17T04:42:07.424Z,0.50
2023-01-17T04:46:11.275Z,0.50
2023-01-17T04:50:14.868Z,0.50
2023-01-17T04:54:18.456Z,0.60
2023-01-17T04:58:23.496Z,0.50
2023-01-17T05:02:26.797Z,0.50
2023-01-17T05:06:30.191Z,0.50
2023-01-17T05:10:33.443Z,0.60
2023-01-17T05:14:38.229Z,0.70
2023-01-17T05:18:41.591Z,0.80
2023-01-17T05:22:45.247Z,0.90
2023-01-17T05:26:54.984Z,0.80
2023-01-17T05:31:00.148Z,0.80
2023-01-17T05:35:03.774Z,0.60
2023-01-17T05:39:07.164Z,0.80
2023-01-17T05:43:10.682Z,0.70
2023-01-17T05:47:16.969Z,0.60
2023-01-17T05:51:22.833Z,0.60
2023-01-17T05:55:29.552Z,0.50
2023-01-17T05:59:37.380Z,0.50
2023-01-17T06:03:44.044Z,0.50
2023-01-17T06:07:49.547Z,0.60
2023-01-17T06:11:52.781Z,0.50
2023-01-17T06:15:57.831Z,0.50
2023-01-17T06:20:02.699Z,0.50
2023-01-17T06:24:06.715Z,0.70
2023-01-17T06:28:09.998Z,0.50
2023-01-17T06:32:14.335Z,0.40
2023-01-17T06:36:19.115Z,0.50
2023-01-17T06:40:22.870Z,0.40
2023-01-17T06:44:26.783Z,0.60
2023-01-17T06:48:30.045Z,0.50
2023-01-17T06:52:34.759Z,0.50
2023-01-17T06:56:38.684Z,0.40
2023-01-17T07:00:43.376Z,0.40
2023-01-17T07:04:46.788Z,0.50
2023-01-17T07:08:51.732Z,0.40
2023-01-17T07:13:00.755Z,0.50
2023-01-17T07:17:06.376Z,0.40
2023-01-17T07:21:14.372Z,0.60
2023-01-17T07:25:20.200Z,0.70
2023-01-17T07:29:23.450Z,0.50
2023-01-17T07:33:27.160Z,0.60
2023-01-17T07:37:30.424Z,0.40
2023-01-17T07:41:41.569Z,0.60
2023-01-17T07:45:46.161Z,0.70
2023-01-17T07:49:49.713Z,0.80
2023-01-17T07:53:53.055Z,1.00
2023-01-17T07:57:57.921Z,0.80
2023-01-17T08:02:01.334Z,1.00
2023-01-17T08:06:05.290Z,1.10
2023-01-17T08:10:13.181Z,1.30
2023-01-17T08:14:17.888Z,1.40
2023-01-17T08:18:21.196Z,1.50
2023-01-17T08:22:24.749Z,1.70
2023-01-17T08:26:29.057Z,1.80
2023-01-17T08:30:34.090Z,1.90
2023-01-17T08:34:37.735Z,1.90
2023-01-17T08:38:42.273Z,2.00
2023-01-17T08:42:45.541Z,2.10
2023-01-17T08:46:51.052Z,2.10
2023-01-17T08:50:54.313Z,2.20
2023-01-17T08:54:57.764Z,2.20
2023-01-17T08:59:01.625Z,2.20
2023-01-17T09:03:11.157Z,2.10
2023-01-17T09:07:15.079Z,2.20
2023-01-17T09:11:19.039Z,2.30
2023-01-17T09:15:22.311Z,2.20
2023-01-17T09:19:27.027Z,2.30
2023-01-17T09:23:31.716Z,2.40
2023-01-17T09:27:34.993Z,2.50
2023-01-17T09:31:38.365Z,2.60
2023-01-17T09:35:43.433Z,2.70
2023-01-17T09:39:46.860Z,2.90
2023-01-17T09:43:55.061Z,3.00
2023-01-17T09:48:00.153Z,3.10
2023-01-17T09:52:06.173Z,3.10
2023-01-17T09:56:15.815Z,3.30
2023-01-17T10:00:36.292Z,3.60
2023-01-17T10:04:55.684Z,3.60
2023-01-17T10:09:34.040Z,3.70
2023-01-17T10:13:47.819Z,3.50
2023-01-17T10:18:01.583Z,3.60
2023-01-17T10:22:27.017Z,3.60
2023-01-17T10:26:32.987Z,3.60
2023-01-17T10:30:40.342Z,3.60
2023-01-17T10:34:49.119Z,3.60
2023-01-17T10:38:55.615Z,3.60
2023-01-17T10:43:03.864Z,3.70
2023-01-17T10:47:20.520Z,3.70
2023-01-17T10:51:50.532Z,3.60
2023-01-17T10:55:54.628Z,3.80
2023-01-17T11:00:02.426Z,3.90
2023-01-17T11:04:12.434Z,3.80
2023-01-17T11:08:17.787Z,3.80
2023-01-17T11:12:28.339Z,3.90
2023-01-17T11:16:33.606Z,4.00
2023-01-17T11:20:39.450Z,4.00
2023-01-17T11:24:49.148Z,3.90
2023-01-17T11:28:53.171Z,4.00
2023-01-17T11:32:59.568Z,3.80
2023-01-17T11:37:10.898Z,3.80
2023-01-17T11:41:22.535Z,3.80
2023-01-17T11:45:27.074Z,3.80
2023-01-17T11:49:31.851Z,3.70
2023-01-17T11:53:38.310Z,3.80
2023-01-17T11:57:42.036Z,3.70
2023-01-17T12:01:50.513Z,3.60
2023-01-17T12:06:02.694Z,3.50
2023-01-17T12:10:13.782Z,3.50
2023-01-17T12:14:28.364Z,3.50
2023-01-17T12:18:45.884Z,3.50
2023-01-17T12:23:14.146Z,3.50
2023-01-17T12:27:25.241Z,3.60
2023-01-17T12:31:34.781Z,3.50
2023-01-17T12:35:45.428Z,3.40
2023-01-17T12:40:00.402Z,3.40
2023-01-17T12:44:15.650Z,3.50
2023-01-17T12:48:20.436Z,3.50
2023-01-17T12:52:35.635Z,3.40
2023-01-17T12:56:48.340Z,3.50
2023-01-17T13:01:01.596Z,3.50
2023-01-17T13:05:15.353Z,3.40
2023-01-17T13:09:23.022Z,3.30
2023-01-17T13:13:29.219Z,3.50
2023-01-17T13:17:40.245Z,3.50
2023-01-17T13:21:43.684Z,3.70
2023-01-17T13:25:50.530Z,3.70
2023-01-17T13:30:16.679Z,3.60
2023-01-17T13:34:38.473Z,3.60
2023-01-17T13:39:08.563Z,3.70
2023-01-17T13:43:15.787Z,3.80
2023-01-17T13:47:40.553Z,3.80
2023-01-17T13:52:10.718Z,3.80
2023-01-17T13:56:16.410Z,3.70
2023-01-17T14:00:55.109Z,3.60
2023-01-17T14:05:11.383Z,3.40
2023-01-17T14:09:22.992Z,3.30
2023-01-17T14:13:35.869Z,3.20
2023-01-17T14:17:58.886Z,3.20
2023-01-17T14:22:25.316Z,3.30
2023-01-17T14:26:51.693Z,3.10
2023-01-17T14:30:56.463Z,3.10
2023-01-17T14:35:00.220Z,3.20
2023-01-17T14:39:05.267Z,3.20
2023-01-17T14:43:13.057Z,3.30
2023-01-17T14:47:17.886Z,3.30
2023-01-17T14:51:24.955Z,3.20
2023-01-17T14:55:29.717Z,3.10
2023-01-17T14:59:33.153Z,3.10
2023-01-17T15:03:44.373Z,3.00
2023-01-17T15:07:53.077Z,3.00
2023-01-17T15:11:58.602Z,3.00
2023-01-17T15:16:06.937Z,2.90
2023-01-17T15:20:18.644Z,3.00
2023-01-17T15:24:25.557Z,2.90
2023-01-17T15:28:31.214Z,3.00
2023-01-17T15:32:34.632Z,3.00
2023-01-17T15:36:38.641Z,3.00
2023-01-17T15:40:45.822Z,2.90
2023-01-17T15:44:54.823Z,2.80
2023-01-17T15:49:17.954Z,2.70
2023-01-17T15:53:31.009Z,2.70
2023-01-17T15:57:36.892Z,2.80
2023-01-17T16:01:44.441Z,2.80
2023-01-17T16:05:48.359Z,2.60
2023-01-17T16:09:51.754Z,2.50
2023-01-17T16:13:55.264Z,2.30
2023-01-17T16:18:04.162Z,2.30
2023-01-17T16:22:08.783Z,2.30
2023-01-17T16:26:12.043Z,2.40
2023-01-17T16:30:18.197Z,2.40
2023-01-17T16:34:24.308Z,2.40
2023-01-17T16:38:28.010Z,2.40
2023-01-17T16:42:31.287Z,2.30
2023-01-17T16:46:38.333Z,2.30
2023-01-17T16:50:48.257Z,2.30
2023-01-17T16:54:52.906Z,2.30
2023-01-17T16:58:56.819Z,2.30
2023-01-17T17:03:00.163Z,2.10
2023-01-17T17:07:06.986Z,1.50
2023-01-17T17:11:15.727Z,1.90
2023-01-17T17:15:20.120Z,1.80
2023-01-17T17:19:24.709Z,1.80
2023-01-17T17:23:30.815Z,1.70
2023-01-17T17:27:34.938Z,1.70
2023-01-17T17:31:39.459Z,1.70
2023-01-17T17:35:43.259Z,1.70
2023-01-17T17:39:47.985Z,1.30
2023-01-17T17:43:54.827Z,1.70
2023-01-17T17:47:58.680Z,1.30
2023-01-17T17:52:05.976Z,1.60
2023-01-17T17:56:11.365Z,1.70
2023-01-17T18:00:18.416Z,1.70
2023-01-17T18:04:22.611Z,1.80
2023-01-17T18:08:26.233Z,2.00
2023-01-17T18:12:39.381Z,1.80
2023-01-17T18:16:45.777Z,1.80
2023-01-17T18:20:50.178Z,1.70
2023-01-17T18:24:57.836Z,1.70
2023-01-17T18:29:06.861Z,1.60
2023-01-17T18:33:13.357Z,1.60
2023-01-17T18:37:20.442Z,1.20
2023-01-17T18:41:27.846Z,1.50
2023-01-17T18:45:35.748Z,1.70
2023-01-17T18:49:41.969Z,1.50
2023-01-17T18:53:48.385Z,1.40
2023-01-17T18:57:53.891Z,1.40
2023-01-17T19:02:01.162Z,1.40
2023-01-17T19:06:09.614Z,1.50
2023-01-17T19:10:16.445Z,1.10
2023-01-17T19:14:28.877Z,1.10
2023-01-17T19:18:43.257Z,1.20
2023-01-17T19:22:54.156Z,1.00
2023-01-17T19:27:08.029Z,0.90
2023-01-17T19:31:17.899Z,1.10
2023-01-17T19:35:27.645Z,1.00
2023-01-17T19:39:40.582Z,1.00
2023-01-17T19:43:49.723Z,1.20
2023-01-17T19:47:55.366Z,0.90
2023-01-17T19:52:07.898Z,1.20
2023-01-17T19:56:15.527Z,1.00
2023-01-17T20:00:30.221Z,1.00
2023-01-17T20:04:38.401Z,1.10
2023-01-17T20:08:47.364Z,1.30
2023-01-17T20:12:57.831Z,1.40
2023-01-17T20:17:07.162Z,1.20
2023-01-17T20:21:19.776Z,1.20
2023-01-17T20:25:26.987Z,1.20
2023-01-17T20:29:32.931Z,1.20
2023-01-17T20:33:42.185Z,1.20
2023-01-17T20:37:47.750Z,1.20
2023-01-17T20:41:56.242Z,1.30
2023-01-17T20:46:05.892Z,1.50
2023-01-17T20:50:13.048Z,1.30
2023-01-17T20:54:25.936Z,1.50
2023-01-17T20:58:40.061Z,1.40
2023-01-17T21:02:49.007Z,1.30
2023-01-17T21:06:55.342Z,1.30
2023-01-17T21:11:15.354Z,1.40
2023-01-17T21:15:20.179Z,1.40
2023-01-17T21:19:23.894Z,1.30
2023-01-17T21:23:29.687Z,1.50
2023-01-17T21:27:33.616Z,1.20
2023-01-17T21:31:40.327Z,1.40
2023-01-17T21:35:43.993Z,1.30
2023-01-17T21:39:54.756Z,1.30
2023-01-17T21:43:59.184Z,1.60
2023-01-17T21:48:05.489Z,1.60
2023-01-17T21:52:26.119Z,1.40
2023-01-17T21:56:46.687Z,1.50
2023-01-17T22:01:07.687Z,1.30
2023-01-17T22:05:12.894Z,1.30
2023-01-17T22:09:17.502Z,1.40
2023-01-17T22:13:21.562Z,1.50
2023-01-17T22:17:25.017Z,1.30
2023-01-17T22:21:30.283Z,1.40
2023-01-17T22:25:33.829Z,1.30
2023-01-17T22:29:38.424Z,1.40
2023-01-17T22:33:44.220Z,1.50
2023-01-17T22:37:48.941Z,1.50
2023-01-17T22:41:52.251Z,1.50
2023-01-17T22:46:00.696Z,1.60
2023-01-17T22:50:04.430Z,1.60
2023-01-17T22:54:12.422Z,1.50
2023-01-17T22:58:15.691Z,1.50
2023-01-17T23:02:19.471Z,1.40
2023-01-17T23:06:25.689Z,1.40
2023-01-17T23:10:48.059Z,1.40
2023-01-17T23:15:08.864Z,1.50
2023-01-17T23:19:25.532Z,1.50
2023-01-17T23:23:28.793Z,1.50
2023-01-17T23:27:53.497Z,1.50
2023-01-17T23:31:56.947Z,1.60
2023-01-17T23:36:00.404Z,1.50
2023-01-17T23:40:03.962Z,1.50
2023-01-17T23:44:09.822Z,1.50
2023-01-17T23:48:13.073Z,1.50
2023-01-17T23:52:16.698Z,1.60
2023-01-17T23:56:23.594Z,1.60
